Time;durP1;ratioP1;P1;durP2;ratioP2;P2;SDS_P1;SDS_P2;PMS_P1;PMS_P2;Temp;Humidity;BMP_temperature;BMP_pressure;BME280_temperature;BME280_humidity;BME280_pressure;Samples;Min_cycle;Max_cycle;Signal;HPM_P1;HPM_P2
2022/06/09 00:01:40;;;;;;;64.17;39.03;;;;;;;17.55;100.00;99978.03;1793874;79;21114;-58
2022/06/09 00:04:17;;;;;;;63.10;36.33;;;;;;;17.51;100.00;99981.66;1791910;79;21528;-59
2022/06/09 00:06:59;;;;;;;55.40;32.67;;;;;;;17.50;100.00;99979.23;1790435;79;20979;-60
2022/06/09 00:09:31;;;;;;;54.07;35.60;;;;;;;17.51;100.00;99972.95;1795385;79;20983;-67
2022/06/09 00:11:58;;;;;;;56.20;35.67;;;;;;;17.53;100.00;99980.09;1798761;79;21864;-57
2022/06/09 00:14:25;;;;;;;58.97;35.10;;;;;;;17.48;100.00;99974.73;1795251;79;21082;-58
2022/06/09 00:16:53;;;;;;;58.40;33.47;;;;;;;17.45;100.00;99973.36;1761918;81;21112;-59
2022/06/09 00:19:21;;;;;;;63.50;36.77;;;;;;;17.43;100.00;99979.40;1808689;78;21238;-61
2022/06/09 00:21:48;;;;;;;59.83;34.07;;;;;;;17.45;100.00;99974.67;1801377;79;20955;-59
2022/06/09 00:24:17;;;;;;;56.57;34.83;;;;;;;17.37;100.00;99975.05;1804269;79;21648;-59
2022/06/09 00:26:44;;;;;;;65.10;39.33;;;;;;;17.42;100.00;99976.45;1804713;78;21783;-57
2022/06/09 00:29:12;;;;;;;67.47;40.13;;;;;;;17.37;100.00;99974.26;1796526;79;21053;-61
2022/06/09 00:31:39;;;;;;;73.90;43.13;;;;;;;17.30;100.00;99978.34;1801700;79;22017;-67
2022/06/09 00:34:07;;;;;;;75.97;45.07;;;;;;;17.26;100.00;99977.20;1806750;79;21053;-66
2022/06/09 00:36:34;;;;;;;79.10;46.20;;;;;;;17.23;100.00;99981.62;1797012;78;21491;-59
2022/06/09 00:39:01;;;;;;;72.97;41.57;;;;;;;17.19;100.00;99976.02;1796623;79;21053;-58
2022/06/09 00:41:29;;;;;;;72.83;42.30;;;;;;;17.17;100.00;99980.73;1804424;79;20939;-67
2022/06/09 00:44:18;;;;;;;70.60;41.23;;;;;;;17.15;100.00;99976.72;1810788;78;21242;-58
2022/06/09 00:46:46;;;;;;;79.90;43.17;;;;;;;17.10;100.00;99974.79;1811018;78;21080;-58
2022/06/09 00:49:21;;;;;;;66.10;38.13;;;;;;;17.09;100.00;99974.52;1802371;79;21480;-60
2022/06/09 00:51:49;;;;;;;66.47;40.10;;;;;;;17.02;100.00;99968.05;1793873;79;21053;-67
2022/06/09 00:54:43;;;;;;;74.43;43.53;;;;;;;17.02;100.00;99969.89;1782158;79;21076;-59
2022/06/09 00:57:22;;;;;;;73.90;42.73;;;;;;;16.95;100.00;99967.89;1764642;81;21227;-57
2022/06/09 00:59:52;;;;;;;58.97;37.03;;;;;;;16.99;100.00;99965.08;1804430;78;20998;-59
2022/06/09 01:02:19;;;;;;;66.57;36.28;;;;;;;17.00;100.00;99965.36;1810956;79;21109;-58
2022/06/09 01:04:48;;;;;;;70.77;38.37;;;;;;;16.91;100.00;99964.13;1800456;78;21057;-59
2022/06/09 01:07:20;;;;;;;59.73;37.00;;;;;;;16.90;100.00;99959.91;1809887;78;21082;-66
2022/06/09 01:09:47;;;;;;;60.90;36.13;;;;;;;16.92;100.00;99960.45;1815211;78;21154;-58
2022/06/09 01:12:39;;;;;;;58.10;33.13;;;;;;;16.87;100.00;99960.36;1815935;78;21013;-64
2022/06/09 01:15:21;;;;;;;49.83;32.50;;;;;;;16.87;100.00;99973.00;1809574;78;21050;-66
2022/06/09 01:18:31;;;;;;;59.53;33.70;;;;;;;16.90;100.00;99959.91;1753387;80;22387;-61
2022/06/09 01:21:10;;;;;;;54.47;32.13;;;;;;;16.89;100.00;99966.97;1790056;79;21968;-57
2022/06/09 01:23:57;;;;;;;53.77;33.03;;;;;;;16.90;100.00;99965.17;1771816;80;21470;-57
2022/06/09 01:26:45;;;;;;;53.87;34.70;;;;;;;16.83;100.00;99971.06;1764654;79;21422;-58
2022/06/09 01:29:30;;;;;;;47.47;29.57;;;;;;;16.86;100.00;99975.84;1801483;79;21629;-58
2022/06/09 01:32:01;;;;;;;50.50;30.87;;;;;;;16.87;100.00;99979.58;1773044;79;22017;-59
2022/06/09 01:34:50;;;;;;;49.07;28.20;;;;;;;16.86;100.00;99975.84;1798918;79;21002;-61
2022/06/09 01:37:33;;;;;;;48.67;26.80;;;;;;;16.80;100.00;99976.78;1797728;79;21278;-57
2022/06/09 01:40:03;;;;;;;48.73;27.70;;;;;;;16.74;100.00;99982.44;1755719;80;20990;-59
2022/06/09 01:42:36;;;;;;;45.13;26.10;;;;;;;16.80;100.00;99982.05;1799739;79;21082;-58
2022/06/09 01:45:12;;;;;;;45.33;27.47;;;;;;;16.86;100.00;99986.37;1777458;80;21441;-58
2022/06/09 01:48:10;;;;;;;49.37;29.70;;;;;;;16.87;100.00;99988.00;1783192;80;21066;-58
2022/06/09 01:50:45;;;;;;;48.33;30.37;;;;;;;16.92;100.00;99996.80;1798284;78;21110;-59
2022/06/09 01:53:22;;;;;;;52.87;31.13;;;;;;;16.95;100.00;99992.91;1783277;78;21093;-59
2022/06/09 01:55:54;;;;;;;52.33;28.83;;;;;;;17.03;100.00;99998.61;1785473;79;21080;-59
2022/06/09 01:58:26;;;;;;;48.07;28.90;;;;;;;17.30;100.00;99989.39;1791398;79;21104;-59
2022/06/09 02:00:53;;;;;;;43.20;26.37;;;;;;;17.63;100.00;99997.42;1796352;78;21053;-57
2022/06/09 02:03:28;;;;;;;40.17;25.27;;;;;;;18.00;100.00;99993.09;1796197;78;21342;-60
2022/06/09 02:05:57;;;;;;;47.50;28.20;;;;;;;18.40;100.00;99996.09;1786711;79;21025;-58
2022/06/09 02:08:25;;;;;;;48.52;27.65;;;;;;;18.81;100.00;99998.05;1780732;80;20991;-59
2022/06/09 02:10:59;;;;;;;43.90;28.40;;;;;;;19.20;100.00;99996.16;1782455;80;21359;-58
2022/06/09 02:13:34;;;;;;;47.50;28.27;;;;;;;19.58;100.00;99997.11;1780974;80;21543;-57
2022/06/09 02:16:05;;;;;;;46.47;28.83;;;;;;;19.97;100.00;100000.45;1779748;80;21248;-57
2022/06/09 02:18:41;;;;;;;44.07;28.07;;;;;;;20.29;100.00;100003.09;1781093;80;20988;-57
2022/06/09 02:21:30;;;;;;;48.70;30.90;;;;;;;20.65;100.00;100001.53;1780417;80;20991;-56
2022/06/09 02:23:58;;;;;;;51.03;30.53;;;;;;;20.98;95.45;100010.17;1771538;80;21429;-60
2022/06/09 02:26:25;;;;;;;58.30;35.40;;;;;;;21.28;90.32;100011.36;1780957;80;21129;-56
2022/06/09 02:28:54;;;;;;;56.17;35.30;;;;;;;21.48;86.15;100004.84;1780661;80;21434;-56
2022/06/09 02:31:22;;;;;;;61.93;37.17;;;;;;;21.76;82.56;100010.20;1766588;79;21519;-57
2022/06/09 02:33:49;;;;;;;61.37;38.20;;;;;;;21.97;79.49;100007.06;1770033;79;21949;-57
2022/06/09 02:36:16;;;;;;;59.10;38.77;;;;;;;22.18;76.84;100012.39;1763133;80;21936;-56
2022/06/09 02:38:44;;;;;;;65.50;41.30;;;;;;;22.43;74.12;100016.37;1769081;80;21503;-58
2022/06/09 02:41:11;;;;;;;74.57;43.63;;;;;;;22.52;71.75;100008.12;1768441;80;21103;-57
2022/06/09 02:43:39;;;;;;;62.37;40.20;;;;;;;22.70;71.11;100017.39;1768199;79;21077;-57
2022/06/09 02:46:07;;;;;;;75.57;45.60;;;;;;;22.89;69.15;100022.93;1745176;80;21033;-57
2022/06/09 02:48:35;;;;;;;61.90;41.47;;;;;;;22.91;67.45;100017.33;1771221;79;21003;-56
2022/06/09 02:51:28;;;;;;;64.03;42.50;;;;;;;23.11;66.93;100017.82;1769253;80;21065;-57
2022/06/09 02:54:00;;;;;;;63.93;43.50;;;;;;;23.36;65.61;100019.05;1747422;79;21411;-57
2022/06/09 02:56:28;;;;;;;63.00;41.63;;;;;;;23.61;64.86;100017.34;1768224;79;21136;-56
2022/06/09 02:58:57;;;;;;;59.37;41.33;;;;;;;23.93;62.96;100022.20;1773562;80;21007;-65
2022/06/09 03:01:25;;;;;;;60.63;40.33;;;;;;;24.18;59.71;100017.23;1772863;79;21306;-56
2022/06/09 03:03:53;;;;;;;60.73;41.90;;;;;;;24.29;59.23;100022.73;1769377;79;21080;-56
2022/06/09 03:06:20;;;;;;;64.37;42.07;;;;;;;24.57;57.76;100019.84;1793053;78;21136;-56
2022/06/09 03:08:48;;;;;;;69.03;44.03;;;;;;;24.87;56.00;100021.39;1801166;78;21453;-64
2022/06/09 03:11:17;;;;;;;67.20;44.37;;;;;;;24.98;55.82;100014.86;1812851;78;21017;-57
2022/06/09 03:13:46;;;;;;;72.63;47.87;;;;;;;25.35;53.70;100017.39;1813673;78;21246;-58
2022/06/09 03:16:14;;;;;;;73.43;46.33;;;;;;;25.51;52.39;100021.19;1809628;78;21093;-56
2022/06/09 03:18:42;;;;;;;74.57;47.20;;;;;;;25.66;50.86;100019.09;1786790;80;21127;-56
2022/06/09 03:21:11;;;;;;;77.25;52.50;;;;;;;25.73;51.14;100020.86;1774825;79;21089;-57
2022/06/09 03:23:38;;;;;;;74.80;50.90;;;;;;;25.84;49.67;100013.52;1784069;80;21096;-57
2022/06/09 03:26:05;;;;;;;74.75;48.87;;;;;;;25.99;49.88;100012.50;1779394;80;21635;-57
2022/06/09 03:28:32;;;;;;;74.37;50.00;;;;;;;26.34;48.44;100015.11;1785696;80;20942;-56
2022/06/09 03:31:00;;;;;;;77.22;51.73;;;;;;;26.60;48.36;100014.70;1770601;79;21058;-64
2022/06/09 03:33:27;;;;;;;73.95;50.88;;;;;;;26.91;45.87;100013.02;1792986;79;22008;-55
2022/06/09 03:35:54;;;;;;;75.28;49.73;;;;;;;26.98;46.01;100003.27;1792858;79;21065;-55
2022/06/09 03:38:22;;;;;;;72.32;46.83;;;;;;;27.20;45.57;100006.59;1794074;79;21105;-56
2022/06/09 03:40:49;;;;;;;68.37;48.17;;;;;;;27.61;44.87;100003.00;1793164;79;21535;-65
2022/06/09 03:43:16;;;;;;;69.47;47.08;;;;;;;27.90;43.19;100006.66;1793979;79;21853;-56
2022/06/09 03:45:44;;;;;;;67.42;46.80;;;;;;;27.97;42.67;100008.36;1794239;79;20995;-58
2022/06/09 03:48:12;;;;;;;65.00;46.13;;;;;;;28.14;42.26;100010.34;1793438;79;20950;-55
2022/06/09 03:50:39;;;;;;;67.08;47.50;;;;;;;28.36;41.86;100001.48;1795916;79;21033;-63
2022/06/09 03:53:07;;;;;;;69.82;49.20;;;;;;;28.55;40.21;100004.76;1790800;79;21006;-57
2022/06/09 03:55:36;;;;;;;72.65;49.25;;;;;;;28.64;40.18;100003.47;1812903;78;21505;-55
2022/06/09 03:58:03;;;;;;;68.62;48.35;;;;;;;28.66;39.92;100005.28;1813429;78;20903;-55
2022/06/09 04:00:31;;;;;;;71.50;49.33;;;;;;;28.60;39.52;100014.02;1785576;80;21049;-55
2022/06/09 04:02:59;;;;;;;71.95;50.83;;;;;;;28.50;39.57;100009.48;1774892;79;20947;-63
2022/06/09 04:05:27;;;;;;;69.40;48.78;;;;;;;28.39;39.56;100007.61;1793340;78;21108;-55
2022/06/09 04:07:55;;;;;;;68.55;47.90;;;;;;;28.56;40.74;100013.59;1794320;79;21422;-56
2022/06/09 04:10:26;;;;;;;65.32;47.67;;;;;;;28.99;39.60;100013.78;1796939;79;21010;-55
2022/06/09 04:12:54;;;;;;;66.07;47.30;;;;;;;29.32;38.84;100010.14;1793095;79;20930;-57
2022/06/09 04:15:23;;;;;;;66.95;45.23;;;;;;;29.56;38.15;100003.52;1788355;79;21938;-59
2022/06/09 04:17:52;;;;;;;60.10;42.85;;;;;;;29.69;38.42;100006.61;1795134;79;21417;-57
2022/06/09 04:20:22;;;;;;;;;;;;;;;29.88;37.25;100010.31;1796725;79;21281;-58
2022/06/09 04:22:50;;;;;;;47.83;39.03;;;;;;;29.97;35.91;100009.76;1755181;79;20456;-64
2022/06/09 04:25:19;;;;;;;49.13;36.95;;;;;;;30.18;37.05;100015.27;1794996;79;21217;-55
2022/06/09 04:27:46;;;;;;;45.05;32.15;;;;;;;30.65;35.70;100005.05;1783149;79;21568;-55
2022/06/09 04:30:14;;;;;;;41.10;29.15;;;;;;;30.93;34.58;100008.12;1796532;79;21298;-55
2022/06/09 04:32:41;;;;;;;42.40;30.50;;;;;;;31.12;33.95;100010.39;1804197;78;21122;-56
2022/06/09 04:35:09;;;;;;;45.92;33.78;;;;;;;31.21;33.60;100009.20;1796067;79;20991;-60
2022/06/09 04:40:23;;;;;;;39.30;30.00;;;;;;;31.12;33.15;100012.52;1797284;79;20942;-56
2022/06/09 04:42:50;;;;;;;41.75;31.07;;;;;;;31.26;33.65;100015.76;1796377;78;21034;-64
2022/06/09 04:45:18;;;;;;;43.60;30.48;;;;;;;31.44;33.03;100007.03;1799335;78;21548;-56
2022/06/09 04:47:45;;;;;;;42.78;32.15;;;;;;;31.59;32.75;100010.22;1799282;78;20981;-57
2022/06/09 04:50:13;;;;;;;43.60;30.85;;;;;;;31.76;32.72;100002.56;1800911;78;21017;-57
2022/06/09 04:52:40;;;;;;;38.75;28.12;;;;;;;31.96;32.74;100007.14;1800996;78;22475;-62
2022/06/09 04:55:09;;;;;;;37.03;26.35;;;;;;;32.20;31.98;100005.87;1796236;79;21590;-56
2022/06/09 04:57:36;;;;;;;37.28;25.92;;;;;;;32.40;31.18;100008.28;1800683;78;21118;-59
2022/06/09 05:00:06;;;;;;;34.73;22.17;;;;;;;32.59;31.26;100003.69;1796880;78;20987;-57
2022/06/09 05:02:34;;;;;;;30.65;22.00;;;;;;;32.85;30.71;100008.75;1796680;78;21092;-55
2022/06/09 05:05:01;;;;;;;29.35;21.27;;;;;;;33.04;29.82;100004.14;1794739;79;21034;-58
2022/06/09 05:07:28;;;;;;;26.70;19.70;;;;;;;33.09;29.04;100011.22;1778855;79;21493;-56
2022/06/09 05:09:56;;;;;;;26.10;19.98;;;;;;;32.96;29.10;100009.11;1735991;81;21254;-56
2022/06/09 05:12:23;;;;;;;23.60;16.80;;;;;;;32.82;28.99;100012.69;1738273;81;21496;-56
2022/06/09 05:14:53;;;;;;;24.82;16.95;;;;;;;32.76;29.12;100012.67;1777061;80;21062;-56
2022/06/09 05:17:20;;;;;;;28.17;18.95;;;;;;;32.77;29.60;100011.55;1766295;80;21730;-55
2022/06/09 05:19:47;;;;;;;27.15;19.20;;;;;;;33.01;29.17;100015.62;1777232;80;21025;-56
2022/06/09 05:22:15;;;;;;;24.70;17.73;;;;;;;33.14;28.42;100012.33;1770723;79;22262;-56
2022/06/09 05:24:44;;;;;;;24.75;16.73;;;;;;;33.43;28.47;100013.95;1767305;79;21504;-63
2022/06/09 05:27:11;;;;;;;24.95;16.60;;;;;;;33.68;27.88;100012.52;1765930;79;21011;-57
2022/06/09 05:29:38;;;;;;;24.12;15.35;;;;;;;33.84;27.58;100013.37;1767343;79;21573;-55
2022/06/09 05:32:07;;;;;;;23.25;16.25;;;;;;;33.80;27.53;100009.80;1767248;80;21050;-55
2022/06/09 05:34:35;;;;;;;22.65;15.63;;;;;;;33.74;27.43;100009.23;1766911;80;21264;-64
2022/06/09 05:37:04;;;;;;;25.57;15.35;;;;;;;33.61;26.98;100007.73;1770598;79;20997;-56
2022/06/09 05:45:05;;;;;;;22.07;14.95;;;;;;;33.37;28.20;100022.06;1757976;79;21103;-55
2022/06/09 05:47:33;;;;;;;18.70;13.85;;;;;;;33.47;27.19;100019.48;1770379;80;21263;-55
2022/06/09 05:50:01;;;;;;;20.65;14.55;;;;;;;33.36;27.22;100019.92;1766119;80;20919;-57
2022/06/09 05:52:29;;;;;;;19.67;13.18;;;;;;;33.24;27.06;100016.48;1766357;79;21365;-57
2022/06/09 05:54:57;;;;;;;18.90;13.83;;;;;;;33.14;27.57;100019.86;1771256;80;21473;-55
2022/06/09 05:57:24;;;;;;;16.27;12.00;;;;;;;33.38;27.83;100012.28;1767364;80;21057;-59
2022/06/09 05:59:51;;;;;;;18.82;13.32;;;;;;;33.53;27.18;100014.86;1770522;79;21247;-56
2022/06/09 06:02:22;;;;;;;18.20;11.68;;;;;;;33.65;27.48;100012.10;1768108;80;20934;-64
2022/06/09 06:04:50;;;;;;;17.82;11.80;;;;;;;33.94;25.99;100014.20;1762381;80;25885;-56
2022/06/09 06:07:17;;;;;;;12.45;9.05;;;;;;;33.93;26.45;100006.45;1768525;78;20990;-56
2022/06/09 06:09:45;;;;;;;10.88;8.08;;;;;;;34.07;25.89;100008.99;1769583;80;20986;-56
2022/06/09 06:12:13;;;;;;;13.05;9.23;;;;;;;34.04;25.27;99998.86;1752458;81;21156;-56
2022/06/09 06:14:42;;;;;;;12.15;9.15;;;;;;;33.84;25.45;100003.91;1769264;80;21021;-57
2022/06/09 06:17:10;;;;;;;14.23;10.98;;;;;;;33.68;25.53;100002.53;1770842;80;21481;-56
2022/06/09 06:19:38;;;;;;;12.80;8.88;;;;;;;33.50;26.27;99998.54;1770282;80;21163;-56
2022/06/09 06:22:05;;;;;;;16.05;10.85;;;;;;;33.27;26.16;100002.30;1769594;80;21061;-57
2022/06/09 06:24:33;;;;;;;18.48;11.30;;;;;;;32.96;27.03;100003.70;1769311;79;21562;-64
2022/06/09 06:27:01;;;;;;;13.32;9.63;;;;;;;32.90;27.80;100006.37;1770020;79;21131;-55
2022/06/09 06:29:28;;;;;;;8.70;5.60;;;;;;;33.06;26.77;100003.22;1766699;79;20989;-55
2022/06/09 06:31:56;;;;;;;8.15;4.30;;;;;;;32.89;25.93;99998.06;1770480;80;21571;-56
2022/06/09 06:34:24;;;;;;;11.80;6.10;;;;;;;32.57;26.22;100000.52;1770529;79;21530;-61
2022/06/09 06:36:52;;;;;;;11.22;8.00;;;;;;;32.55;26.47;100002.01;1769050;80;21634;-57
2022/06/09 06:39:20;;;;;;;10.30;6.95;;;;;;;32.60;26.79;99997.16;1769822;79;21084;-56
2022/06/09 06:41:47;;;;;;;8.28;6.05;;;;;;;32.68;26.56;100001.66;1798708;78;21564;-56
2022/06/09 06:44:15;;;;;;;7.60;5.25;;;;;;;32.59;26.58;100005.60;1814731;78;21707;-64
2022/06/09 06:46:42;;;;;;;7.72;4.08;;;;;;;32.54;25.87;100005.23;1810450;78;21013;-57
2022/06/09 06:49:11;;;;;;;8.50;5.42;;;;;;;32.34;25.75;99999.36;1809146;78;20907;-57
2022/06/09 06:51:39;;;;;;;8.55;6.15;;;;;;;32.12;26.86;100005.38;1811181;78;21831;-57
2022/06/09 06:54:06;;;;;;;7.85;6.22;;;;;;;32.16;27.08;100009.55;1816216;78;21037;-63
2022/06/09 06:56:35;;;;;;;10.43;6.80;;;;;;;32.29;25.82;100007.68;1812889;78;21555;-58
2022/06/09 06:59:02;;;;;;;11.50;8.68;;;;;;;32.10;26.77;100006.29;1810724;78;21052;-57
2022/06/09 07:01:30;;;;;;;14.85;10.80;;;;;;;32.05;27.22;100011.91;1813800;78;21143;-58
2022/06/09 07:03:57;;;;;;;11.60;7.85;;;;;;;31.94;26.40;100013.44;1811944;78;20978;-55
2022/06/09 07:06:24;;;;;;;13.13;7.08;;;;;;;31.77;26.98;100004.91;1808226;78;21089;-58
2022/06/09 07:08:51;;;;;;;8.55;6.00;;;;;;;31.96;27.19;100008.48;1811882;78;21128;-62
2022/06/09 07:11:19;;;;;;;7.97;4.58;;;;;;;32.00;26.48;100007.27;1815381;78;21817;-57
2022/06/09 07:13:49;;;;;;;6.78;4.50;;;;;;;32.04;26.56;100007.61;1800590;78;21956;-56
2022/06/09 07:16:19;;;;;;;5.78;3.62;;;;;;;32.29;26.49;100012.51;1810715;78;20947;-57
2022/06/09 07:18:46;;;;;;;5.92;2.77;;;;;;;32.48;25.60;100021.44;1813924;78;22209;-65
2022/06/09 07:21:15;;;;;;;7.10;2.90;;;;;;;32.42;25.00;100015.47;1811418;78;20987;-57
2022/06/09 07:23:42;;;;;;;8.38;2.72;;;;;;;32.48;24.99;100010.66;1808220;78;22058;-55
2022/06/09 07:26:09;;;;;;;5.25;3.00;;;;;;;32.28;25.39;100013.64;1811345;78;22023;-65
2022/06/09 07:28:37;;;;;;;4.78;3.00;;;;;;;32.19;25.42;100012.36;1812465;78;21033;-56
2022/06/09 07:31:04;;;;;;;3.98;2.50;;;;;;;32.17;24.94;100009.80;1806427;78;20991;-56
2022/06/09 07:33:34;;;;;;;6.33;2.98;;;;;;;32.05;25.20;100007.86;1812814;78;21136;-56
2022/06/09 07:36:05;;;;;;;5.20;3.02;;;;;;;31.94;25.89;100012.88;1782801;79;47098;-64
2022/06/09 07:38:33;;;;;;;4.95;2.47;;;;;;;32.13;25.71;100021.80;1813571;78;21194;-56
2022/06/09 07:41:01;;;;;;;4.17;2.50;;;;;;;32.14;24.86;100012.59;1809937;78;20876;-58
2022/06/09 07:43:29;;;;;;;5.03;2.77;;;;;;;32.03;25.29;100012.00;1813841;78;21445;-58
2022/06/09 07:45:57;;;;;;;5.60;3.40;;;;;;;31.85;24.92;100019.42;1808606;78;21019;-63
2022/06/09 07:48:25;;;;;;;7.22;3.60;;;;;;;31.60;25.27;100013.95;1806989;78;21476;-56
2022/06/09 07:50:52;;;;;;;6.72;3.80;;;;;;;31.61;25.86;100017.43;1814606;78;21264;-57
2022/06/09 07:53:19;;;;;;;8.58;4.08;;;;;;;31.73;25.94;100011.52;1807392;78;21829;-57
2022/06/09 07:55:48;;;;;;;8.58;4.67;;;;;;;32.07;25.36;100004.81;1803663;78;21044;-59
2022/06/09 07:58:16;;;;;;;8.58;4.53;;;;;;;32.14;24.99;100005.84;1808474;78;22287;-56
2022/06/09 08:00:43;;;;;;;9.30;4.67;;;;;;;32.21;24.71;100011.48;1815779;78;21057;-56
2022/06/09 08:03:18;;;;;;;12.43;6.87;;;;;;;32.25;25.05;100012.95;1809915;78;21127;-56
2022/06/09 08:05:45;;;;;;;11.60;6.97;;;;;;;32.36;24.57;100011.39;1808901;78;21517;-63
2022/06/09 08:08:14;;;;;;;8.65;6.28;;;;;;;32.42;24.53;100013.33;1811488;78;21372;-57
2022/06/09 08:10:42;;;;;;;9.95;7.20;;;;;;;32.42;23.56;100010.63;1815415;78;20915;-56
2022/06/09 08:13:09;;;;;;;10.20;7.10;;;;;;;32.10;24.09;100015.73;1813449;78;21028;-59
2022/06/09 08:15:39;;;;;;;10.15;6.75;;;;;;;31.99;24.09;100007.83;1785255;78;21140;-57
2022/06/09 08:18:07;;;;;;;;;;;;;;;32.00;25.16;100000.53;1818186;78;21770;-56
2022/06/09 08:20:38;;;;;;;14.63;6.95;;;;;;;32.57;24.35;100004.58;1810533;78;20137;-56
2022/06/09 08:23:08;;;;;;;8.78;6.37;;;;;;;33.16;23.10;100002.77;1809610;78;21108;-57
2022/06/09 08:25:35;;;;;;;;;;;;;;;33.81;23.33;100002.67;1813122;78;22400;-57
2022/06/09 08:28:04;;;;;;;10.00;6.33;;;;;;;34.29;23.11;100000.08;1813080;78;21014;-57
2022/06/09 08:30:32;;;;;;;10.00;6.87;;;;;;;34.20;22.22;99998.88;1811374;78;22437;-57
2022/06/09 08:32:59;;;;;;;9.75;6.87;;;;;;;33.75;22.06;100004.61;1810035;78;21053;-55
2022/06/09 08:35:26;;;;;;;10.20;7.30;;;;;;;33.54;22.99;99992.09;1812407;78;20985;-64
2022/06/09 08:37:54;;;;;;;10.82;7.35;;;;;;;33.96;23.45;99993.02;1809686;78;21492;-55
2022/06/09 08:40:26;;;;;;;11.85;7.90;;;;;;;34.28;22.00;99991.72;1813654;78;21198;-59
2022/06/09 08:43:21;;;;;;;12.80;7.53;;;;;;;34.03;21.53;99987.05;1810785;78;20946;-57
2022/06/09 08:45:48;;;;;;;10.05;6.95;;;;;;;33.45;22.78;99992.76;1814172;78;20947;-55
2022/06/09 08:48:19;;;;;;;10.98;8.25;;;;;;;33.05;23.50;99994.13;1807247;78;21480;-55
2022/06/09 08:50:57;;;;;;;11.97;8.58;;;;;;;32.91;23.92;99987.69;1806269;78;20999;-56
2022/06/09 08:53:31;;;;;;;14.83;8.40;;;;;;;32.90;23.16;99986.91;1806537;78;21377;-55
2022/06/09 08:56:02;;;;;;;13.55;9.58;;;;;;;33.00;23.60;99991.64;1790297;78;20986;-56
2022/06/09 08:58:43;;;;;;;12.03;8.73;;;;;;;32.99;23.43;99979.27;1807070;78;21049;-57
2022/06/09 09:01:22;;;;;;;14.35;9.15;;;;;;;33.21;24.13;99984.17;1816150;78;21502;-56
2022/06/09 09:03:54;;;;;;;12.65;10.23;;;;;;;33.52;23.99;99977.34;1800070;78;21089;-56
2022/06/09 09:06:46;;;;;;;10.85;8.25;;;;;;;33.36;23.67;99981.32;1808183;78;21097;-63
2022/06/09 09:09:24;;;;;;;11.65;9.10;;;;;;;33.20;24.41;99979.13;1812985;78;20919;-57
2022/06/09 09:12:18;;;;;;;11.95;8.35;;;;;;;33.56;23.92;99973.61;1809508;78;20962;-66
2022/06/09 09:15:14;;;;;;;14.30;10.20;;;;;;;34.24;23.45;99967.84;1813024;78;20993;-55
2022/06/09 09:17:48;;;;;;;13.98;10.65;;;;;;;34.93;22.23;99962.33;1816290;78;21497;-55
2022/06/09 09:20:37;;;;;;;15.75;11.65;;;;;;;34.90;22.47;99964.39;1810802;78;21166;-55
2022/06/09 09:23:21;;;;;;;10.13;7.70;;;;;;;34.85;22.17;99967.36;1800555;78;21066;-56
2022/06/09 09:26:14;;;;;;;8.93;6.62;;;;;;;34.65;21.77;99957.63;1800910;78;21026;-55
2022/06/09 09:28:51;;;;;;;9.78;5.87;;;;;;;34.20;22.12;99962.92;1812828;78;21042;-55
2022/06/09 09:31:35;;;;;;;7.92;6.12;;;;;;;33.93;23.10;99966.67;1810440;78;20999;-55
2022/06/09 09:34:03;;;;;;;9.48;7.45;;;;;;;34.17;22.97;99960.34;1807997;78;21826;-60
2022/06/09 09:36:37;;;;;;;8.43;5.55;;;;;;;34.70;22.61;99958.70;1785835;78;21418;-56
2022/06/09 09:39:12;;;;;;;8.90;5.10;;;;;;;34.86;22.14;99960.25;1814660;78;21476;-55
2022/06/09 09:41:40;;;;;;;8.55;6.00;;;;;;;34.68;21.50;99961.77;1810674;78;20989;-56
2022/06/09 09:44:23;;;;;;;9.03;6.22;;;;;;;34.48;22.17;99957.42;1815081;78;21489;-56
2022/06/09 09:46:54;;;;;;;13.05;9.13;;;;;;;34.58;22.26;99951.48;1800381;78;21879;-55
2022/06/09 09:49:38;;;;;;;16.05;12.28;;;;;;;34.56;21.94;99955.13;1808553;78;20887;-57
2022/06/09 09:52:37;;;;;;;10.45;6.90;;;;;;;34.47;22.07;99950.42;1812881;78;22361;-57
2022/06/09 09:55:27;;;;;;;10.43;7.58;;;;;;;34.49;21.32;99938.69;1773065;78;21054;-57
2022/06/09 09:58:27;;;;;;;17.67;10.55;;;;;;;34.39;21.78;99935.94;1812598;78;21096;-56
2022/06/09 10:01:06;;;;;;;12.75;9.15;;;;;;;34.37;22.09;99939.58;1805559;78;21461;-56
2022/06/09 10:09:18;;;;;;;10.53;7.62;;;;;;;34.29;21.10;99929.16;1810730;78;21001;-56
2022/06/09 10:11:54;;;;;;;9.20;6.47;;;;;;;34.51;20.91;99925.05;1805915;79;20995;-61
2022/06/09 10:14:56;;;;;;;10.03;7.12;;;;;;;34.65;21.00;99935.97;1810237;79;21825;-56
2022/06/09 10:17:51;;;;;;;12.63;8.93;;;;;;;34.61;21.12;99927.77;1807970;78;21103;-56
2022/06/09 10:20:43;;;;;;;15.70;11.05;;;;;;;34.93;20.84;99920.89;1807609;79;20987;-62
2022/06/09 10:23:16;;;;;;;16.90;12.37;;;;;;;35.31;20.44;99920.95;1798214;79;21516;-56
2022/06/09 10:26:18;;;;;;;26.12;18.57;;;;;;;35.72;19.58;99912.41;1796925;79;21257;-55
2022/06/09 10:28:59;;;;;;;23.67;17.40;;;;;;;35.66;18.82;99903.80;1792469;79;23390;-55
2022/06/09 10:31:59;;;;;;;21.68;17.45;;;;;;;35.08;19.92;99900.57;1803735;78;21069;-57
2022/06/09 10:34:40;;;;;;;24.85;21.40;;;;;;;34.87;20.53;99902.80;1812728;78;21043;-55
2022/06/09 10:37:15;;;;;;;28.98;23.87;;;;;;;34.68;20.53;99908.20;1806854;78;20999;-62
2022/06/09 10:40:06;;;;;;;29.63;23.12;;;;;;;34.43;20.21;99905.68;1784438;80;21060;-55
2022/06/09 10:43:02;;;;;;;33.85;26.07;;;;;;;34.23;20.18;99906.77;1775781;80;21208;-64
2022/06/09 10:45:48;;;;;;;28.62;25.10;;;;;;;33.91;19.96;99905.41;1784885;80;21003;-56
2022/06/09 10:57:54;;;;;;;26.87;21.80;;;;;;;32.28;22.50;99906.28;1808572;78;22204;-55
2022/06/09 11:00:31;;;;;;;23.27;20.05;;;;;;;32.17;21.39;99908.10;1785204;80;21422;-58
2022/06/09 11:03:05;;;;;;;23.40;18.77;;;;;;;31.92;21.64;99903.80;1777352;80;21451;-55
2022/06/09 11:05:58;;;;;;;22.25;19.37;;;;;;;31.92;21.43;99894.36;1792889;79;21098;-55
2022/06/09 11:08:47;;;;;;;20.15;15.72;;;;;;;32.10;21.05;99887.64;1754489;79;21010;-57
2022/06/09 11:11:40;;;;;;;25.75;20.80;;;;;;;32.13;20.80;99889.67;1794172;79;21298;-58
2022/06/09 11:14:46;;;;;;;22.15;18.48;;;;;;;32.00;21.50;99885.38;1785258;79;20986;-56
2022/06/09 11:17:32;;;;;;;20.62;17.12;;;;;;;31.94;20.89;99886.74;1761407;79;21060;-56
2022/06/09 11:20:26;;;;;;;15.13;11.70;;;;;;;31.64;20.72;99884.18;1796451;79;21087;-56
2022/06/09 11:23:04;;;;;;;12.37;10.15;;;;;;;31.56;21.67;99890.98;1794284;79;21438;-58
2022/06/09 11:25:52;;;;;;;13.90;10.80;;;;;;;31.46;20.87;99884.91;1791854;79;21299;-59
2022/06/09 11:28:36;;;;;;;22.65;17.87;;;;;;;31.28;21.98;99882.67;1792984;79;21029;-58
2022/06/09 11:31:39;;;;;;;20.97;16.93;;;;;;;31.30;22.27;99876.41;1792803;79;21029;-56
2022/06/09 11:34:41;;;;;;;18.37;13.90;;;;;;;31.39;22.54;99882.53;1790168;79;20986;-58
2022/06/09 11:37:31;;;;;;;13.88;9.48;;;;;;;31.49;21.57;99880.77;1786389;79;21934;-57
2022/06/09 11:40:04;;;;;;;14.90;12.25;;;;;;;31.37;20.96;99884.22;1798089;79;21065;-58
2022/06/09 11:43:06;;;;;;;16.00;11.00;;;;;;;31.18;21.71;99884.67;1791579;79;21068;-61
2022/06/09 11:45:43;;;;;;;15.40;11.08;;;;;;;31.19;21.83;99882.20;1792210;79;20979;-70
2022/06/09 11:48:21;;;;;;;14.85;11.05;;;;;;;31.10;21.49;99886.86;1784581;79;21073;-61
2022/06/09 11:50:49;;;;;;;11.53;9.08;;;;;;;31.07;21.98;99886.19;1804796;78;20935;-61
2022/06/09 11:53:24;;;;;;;11.90;8.05;;;;;;;31.11;22.24;99876.90;1807351;78;20923;-68
2022/06/09 11:55:57;;;;;;;10.65;8.30;;;;;;;31.21;22.42;99881.30;1783147;79;22151;-66
2022/06/09 11:58:41;;;;;;;9.85;6.70;;;;;;;31.20;21.76;99877.59;1792754;79;21099;-62
2022/06/09 12:01:24;;;;;;;15.80;9.45;;;;;;;31.17;21.50;99885.77;1794162;79;21511;-63
2022/06/09 12:04:21;;;;;;;13.62;10.98;;;;;;;31.08;21.43;99881.03;1781371;79;21068;-61
2022/06/09 12:07:29;;;;;;;12.85;9.83;;;;;;;30.96;21.99;99877.72;1799823;79;21209;-70
2022/06/09 12:10:16;;;;;;;13.00;9.95;;;;;;;30.93;21.76;99878.93;1793921;79;21108;-67